Flight Track Log - Related Links

Times and Time Zones

All times are in EDT time to prevent confusion due to time zone crossing. See the EJA922 flight status page for this flight to view local times or setup timezone preferences in your user account.

Time Position Orientation Groundspeed Altitude Reporting Facility
EDT Latitude Longitude Course Direction KTS MPH feet Rate Location/Type
Mon 11:42:13 AM 30.3781 -97.4194 82° East 238 274 5,000  Level Houston Center
Mon 11:42:46 AM 30.3747 -97.3631 94° East 266 306 6,500 1,034 Climbing Houston Center
Mon 11:44:09 AM 30.3672 -97.2467 94° East 272 313 7,000 196 Climbing Houston Center
Mon 11:45:19 AM 30.3603 -97.1367 94° East 282 325 7,000  Level Houston Center
Mon 11:46:00 AM 30.3056 -97.0518 94° East  Level Estimated
Mon 11:46:21 AM 30.3542 -97.0414 94° East 291 335 7,000  Level Houston Center
Mon 11:47:00 AM 30.3159 -96.9651 82° East  Level FlightAware Approximate
Mon 11:47:23 AM 30.3483 -96.9461 94° East 295 339 6,900  Level Houston Center
Mon 11:48:26 AM 30.3425 -96.8517 94° East 294 338 7,000 48 Climbing Houston Center
Mon 11:49:28 AM 30.3358 -96.7547 95° East 297 342 7,000 47 Level Houston Center
Mon 11:50:34 AM 30.3278 -96.6394 95° East 298 343 7,100 47 Climbing Houston Center
Mon 11:51:35 AM 30.3342 -96.5394 86° East 302 348 7,100 -100 Level Houston Center
Mon 11:52:34 AM 30.3417 -96.4483 85° East 302 348 6,900 -99 Descending Houston Center
Mon 11:53:36 AM 30.3489 -96.3511 85° East 302 348 6,900 48 Level Houston Center
Mon 11:54:38 AM 30.3414 -96.2539 95° East 303 349 7,000 48 Climbing Houston Center
Mon 11:55:40 AM 30.3219 -96.1606 104° East 299 344 7,000  Level Houston Center
Mon 11:56:42 AM 30.2967 -96.0686 108° East 299 344 7,000 51 Level Houston Center
Mon 11:57:37 AM 30.2636 -95.9769 113° Southeast 299 344 7,100 49 Climbing Houston Center
Mon 11:58:44 AM 30.2528 -95.8742 97° East 307 353 7,100  Level Houston Center
Mon 11:59:45 AM 30.2911 -95.7850 64° Northeast 306 352 7,100 -49 Level Houston Center
Mon 12:00:46 PM 30.2661 -95.6914 107° East 300 345 7,000 -103 Descending Houston Center
Mon 12:01:42 PM 30.2144 -95.6297 134° Southeast 288 331 6,900 -51 Descending Houston Center
Mon 12:02:43 PM 30.1675 -95.5747 135° Southeast 231 266 6,900  Level Houston Center
Mon 12:03:44 PM 30.1083 -95.5481 159° South 226 260 6,900 44 Level Houston Center
Mon 12:04:58 PM 30.0900 -95.4608 104° East 248 285 7,000 47 Climbing Houston Center
Mon 12:05:53 PM 30.0917 -95.3883 88° East 247 284 7,000 -49 Level Houston Center
Mon 12:07:00 PM 30.0925 -95.3036 89° East 249 287 6,900 -492 Descending Houston Center
Mon 12:07:55 PM 30.0961 -95.2306 87° East 243 280 6,000 -983 Descending Houston Center
Mon 12:08:56 PM 30.0978 -95.1556 89° East 237 273 5,000 -976 Descending Houston Center
Mon 12:09:58 PM 30.0989 -95.0783 89° East 228 262 4,000 -513 Descending Houston Center
Mon 12:10:53 PM 30.0867 -95.0144 102° East 214 246 4,000 -197 Level Houston Center
Mon 12:12:00 PM 30.0261 -94.9978 167° South 219 252 3,600 -469 Descending Houston Center
Mon 12:13:01 PM 29.9931 -95.0478 233° Southwest 208 239 3,000 -362 Descending Houston Center
Mon 12:13:56 PM 29.9928 -95.1106 270° West 221 254 2,900 -310 Descending Houston Center
Mon 12:14:57 PM 29.9939 -95.1900 271° West 238 274 2,400 -797 Descending Houston Center
Mon 12:16:04 PM 29.9944 -95.2647 271° West 169 194 1,200 -927 Descending Houston Center
Mon 12:17:00 PM 29.9939 -95.3058 269° West 125 144 500 -750 Descending Houston Center

Login

Don't have an account? Register now (free) for customized features, flight alerts, and more!